sensor_id;sensor_type;location;lat;lon;timestamp;P1;durP1;ratioP1;P2;durP2;ratioP2
55417;SDS011;41287;47.554;7.844;2022-11-20T00:01:03;5.85;;;2.17;;
55417;SDS011;41287;47.554;7.844;2022-11-20T00:03:33;7.18;;;2.08;;
55417;SDS011;41287;47.554;7.844;2022-11-20T00:06:06;4.63;;;1.85;;
55417;SDS011;41287;47.554;7.844;2022-11-20T00:08:32;3.88;;;1.80;;
55417;SDS011;41287;47.554;7.844;2022-11-20T00:11:05;5.03;;;1.90;;
55417;SDS011;41287;47.554;7.844;2022-11-20T00:13:32;5.35;;;2.10;;
55417;SDS011;41287;47.554;7.844;2022-11-20T00:15:58;3.97;;;1.50;;
55417;SDS011;41287;47.554;7.844;2022-11-20T00:18:25;6.47;;;2.03;;
55417;SDS011;41287;47.554;7.844;2022-11-20T00:20:52;4.70;;;1.80;;
55417;SDS011;41287;47.554;7.844;2022-11-20T00:23:17;3.25;;;1.58;;
55417;SDS011;41287;47.554;7.844;2022-11-20T00:25:43;6.18;;;2.30;;
55417;SDS011;41287;47.554;7.844;2022-11-20T00:28:08;4.28;;;1.55;;
55417;SDS011;41287;47.554;7.844;2022-11-20T00:30:33;4.10;;;1.73;;
55417;SDS011;41287;47.554;7.844;2022-11-20T00:32:59;5.85;;;2.05;;
55417;SDS011;41287;47.554;7.844;2022-11-20T00:35:24;5.40;;;2.25;;
55417;SDS011;41287;47.554;7.844;2022-11-20T00:37:53;5.35;;;1.92;;
55417;SDS011;41287;47.554;7.844;2022-11-20T00:40:18;4.57;;;1.95;;
55417;SDS011;41287;47.554;7.844;2022-11-20T00:42:45;5.38;;;1.85;;
55417;SDS011;41287;47.554;7.844;2022-11-20T00:45:11;5.82;;;1.90;;
55417;SDS011;41287;47.554;7.844;2022-11-20T00:47:36;3.70;;;1.55;;
55417;SDS011;41287;47.554;7.844;2022-11-20T00:50:02;5.65;;;1.92;;
55417;SDS011;41287;47.554;7.844;2022-11-20T00:52:27;3.40;;;1.60;;
55417;SDS011;41287;47.554;7.844;2022-11-20T00:54:52;7.25;;;2.13;;
55417;SDS011;41287;47.554;7.844;2022-11-20T00:57:18;3.70;;;1.77;;
55417;SDS011;41287;47.554;7.844;2022-11-20T00:59:43;4.43;;;2.00;;
55417;SDS011;41287;47.554;7.844;2022-11-20T01:02:08;5.03;;;1.80;;
55417;SDS011;41287;47.554;7.844;2022-11-20T01:04:34;2.95;;;1.40;;
55417;SDS011;41287;47.554;7.844;2022-11-20T01:06:59;5.40;;;1.80;;
55417;SDS011;41287;47.554;7.844;2022-11-20T01:09:24;4.25;;;1.63;;
55417;SDS011;41287;47.554;7.844;2022-11-20T01:11:50;4.82;;;1.70;;
55417;SDS011;41287;47.554;7.844;2022-11-20T01:14:16;2.72;;;1.35;;
55417;SDS011;41287;47.554;7.844;2022-11-20T01:16:47;4.65;;;2.00;;
55417;SDS011;41287;47.554;7.844;2022-11-20T01:19:16;3.17;;;1.30;;
55417;SDS011;41287;47.554;7.844;2022-11-20T01:21:44;5.72;;;1.45;;
55417;SDS011;41287;47.554;7.844;2022-11-20T01:24:11;3.78;;;1.75;;
55417;SDS011;41287;47.554;7.844;2022-11-20T01:26:38;4.45;;;1.75;;
55417;SDS011;41287;47.554;7.844;2022-11-20T01:29:06;6.32;;;1.83;;
55417;SDS011;41287;47.554;7.844;2022-11-20T01:31:33;4.35;;;1.60;;
55417;SDS011;41287;47.554;7.844;2022-11-20T01:34:05;3.47;;;1.80;;
55417;SDS011;41287;47.554;7.844;2022-11-20T01:36:32;5.15;;;1.50;;
55417;SDS011;41287;47.554;7.844;2022-11-20T01:39:01;5.22;;;1.73;;
55417;SDS011;41287;47.554;7.844;2022-11-20T01:41:29;4.53;;;1.67;;
55417;SDS011;41287;47.554;7.844;2022-11-20T01:44:16;7.00;;;2.00;;
55417;SDS011;41287;47.554;7.844;2022-11-20T01:46:58;2.45;;;1.40;;
55417;SDS011;41287;47.554;7.844;2022-11-20T01:49:28;4.40;;;1.70;;
55417;SDS011;41287;47.554;7.844;2022-11-20T01:52:07;4.95;;;1.70;;
55417;SDS011;41287;47.554;7.844;2022-11-20T01:54:51;2.67;;;1.60;;
55417;SDS011;41287;47.554;7.844;2022-11-20T01:57:22;4.88;;;1.90;;
55417;SDS011;41287;47.554;7.844;2022-11-20T02:00:16;4.45;;;1.58;;
55417;SDS011;41287;47.554;7.844;2022-11-20T02:02:42;3.83;;;1.45;;
55417;SDS011;41287;47.554;7.844;2022-11-20T02:07:42;4.63;;;1.70;;
55417;SDS011;41287;47.554;7.844;2022-11-20T02:10:08;3.00;;;1.60;;
55417;SDS011;41287;47.554;7.844;2022-11-20T02:12:33;3.40;;;1.40;;
55417;SDS011;41287;47.554;7.844;2022-11-20T02:15:17;4.47;;;1.67;;
55417;SDS011;41287;47.554;7.844;2022-11-20T02:17:43;3.20;;;1.88;;
55417;SDS011;41287;47.554;7.844;2022-11-20T02:20:10;3.33;;;1.70;;
55417;SDS011;41287;47.554;7.844;2022-11-20T02:23:20;3.15;;;1.27;;
55417;SDS011;41287;47.554;7.844;2022-11-20T02:25:29;3.92;;;1.65;;
55417;SDS011;41287;47.554;7.844;2022-11-20T02:27:57;4.45;;;1.98;;
55417;SDS011;41287;47.554;7.844;2022-11-20T02:30:22;3.78;;;1.55;;
55417;SDS011;41287;47.554;7.844;2022-11-20T02:32:48;3.78;;;1.63;;
55417;SDS011;41287;47.554;7.844;2022-11-20T02:37:47;3.45;;;1.60;;
55417;SDS011;41287;47.554;7.844;2022-11-20T02:40:15;3.53;;;1.80;;
55417;SDS011;41287;47.554;7.844;2022-11-20T02:42:41;3.90;;;1.58;;
55417;SDS011;41287;47.554;7.844;2022-11-20T02:45:10;3.83;;;1.58;;
55417;SDS011;41287;47.554;7.844;2022-11-20T02:47:37;2.25;;;1.33;;
55417;SDS011;41287;47.554;7.844;2022-11-20T02:50:03;4.40;;;1.77;;
55417;SDS011;41287;47.554;7.844;2022-11-20T02:52:29;2.13;;;1.40;;
55417;SDS011;41287;47.554;7.844;2022-11-20T02:54:55;2.40;;;1.40;;
55417;SDS011;41287;47.554;7.844;2022-11-20T02:57:20;2.47;;;1.33;;
55417;SDS011;41287;47.554;7.844;2022-11-20T02:59:46;3.20;;;1.45;;
55417;SDS011;41287;47.554;7.844;2022-11-20T03:02:11;3.10;;;1.38;;
55417;SDS011;41287;47.554;7.844;2022-11-20T03:04:39;2.80;;;1.50;;
55417;SDS011;41287;47.554;7.844;2022-11-20T03:07:04;3.58;;;1.35;;
55417;SDS011;41287;47.554;7.844;2022-11-20T03:09:29;2.67;;;1.35;;
55417;SDS011;41287;47.554;7.844;2022-11-20T03:11:56;3.97;;;1.60;;
55417;SDS011;41287;47.554;7.844;2022-11-20T03:14:21;3.85;;;1.58;;
55417;SDS011;41287;47.554;7.844;2022-11-20T03:16:48;4.25;;;1.33;;
55417;SDS011;41287;47.554;7.844;2022-11-20T03:19:14;3.30;;;1.42;;
55417;SDS011;41287;47.554;7.844;2022-11-20T03:21:39;4.38;;;1.60;;
55417;SDS011;41287;47.554;7.844;2022-11-20T03:24:05;3.42;;;1.33;;
55417;SDS011;41287;47.554;7.844;2022-11-20T03:26:31;2.63;;;1.38;;
55417;SDS011;41287;47.554;7.844;2022-11-20T03:28:57;2.15;;;1.30;;
55417;SDS011;41287;47.554;7.844;2022-11-20T03:31:29;3.92;;;1.52;;
55417;SDS011;41287;47.554;7.844;2022-11-20T03:33:56;3.03;;;1.60;;
55417;SDS011;41287;47.554;7.844;2022-11-20T03:36:23;2.88;;;1.20;;
55417;SDS011;41287;47.554;7.844;2022-11-20T03:38:49;2.88;;;1.40;;
55417;SDS011;41287;47.554;7.844;2022-11-20T03:41:16;4.40;;;1.73;;
55417;SDS011;41287;47.554;7.844;2022-11-20T03:43:53;3.08;;;1.42;;
55417;SDS011;41287;47.554;7.844;2022-11-20T03:46:21;4.55;;;1.63;;
55417;SDS011;41287;47.554;7.844;2022-11-20T03:48:46;3.50;;;1.60;;
55417;SDS011;41287;47.554;7.844;2022-11-20T03:51:16;3.38;;;1.52;;
55417;SDS011;41287;47.554;7.844;2022-11-20T03:53:47;3.03;;;1.45;;
55417;SDS011;41287;47.554;7.844;2022-11-20T03:56:14;3.30;;;1.50;;
55417;SDS011;41287;47.554;7.844;2022-11-20T03:58:40;2.97;;;1.38;;
55417;SDS011;41287;47.554;7.844;2022-11-20T04:01:09;2.95;;;1.40;;
55417;SDS011;41287;47.554;7.844;2022-11-20T04:03:40;2.92;;;1.20;;
55417;SDS011;41287;47.554;7.844;2022-11-20T04:06:08;2.60;;;1.25;;
55417;SDS011;41287;47.554;7.844;2022-11-20T04:08:35;2.60;;;1.23;;
55417;SDS011;41287;47.554;7.844;2022-11-20T04:11:11;2.70;;;1.10;;
55417;SDS011;41287;47.554;7.844;2022-11-20T04:13:39;2.55;;;1.30;;
55417;SDS011;41287;47.554;7.844;2022-11-20T04:16:05;2.65;;;1.27;;
55417;SDS011;41287;47.554;7.844;2022-11-20T04:18:32;2.08;;;1.08;;
55417;SDS011;41287;47.554;7.844;2022-11-20T04:20:57;2.97;;;1.27;;
55417;SDS011;41287;47.554;7.844;2022-11-20T04:23:23;2.45;;;1.20;;
55417;SDS011;41287;47.554;7.844;2022-11-20T04:25:49;3.25;;;1.30;;
55417;SDS011;41287;47.554;7.844;2022-11-20T04:28:14;1.92;;;1.45;;
55417;SDS011;41287;47.554;7.844;2022-11-20T04:30:42;4.18;;;1.33;;
55417;SDS011;41287;47.554;7.844;2022-11-20T04:33:07;3.15;;;1.35;;
55417;SDS011;41287;47.554;7.844;2022-11-20T04:35:35;2.30;;;1.25;;
55417;SDS011;41287;47.554;7.844;2022-11-20T04:38:01;3.88;;;1.23;;
55417;SDS011;41287;47.554;7.844;2022-11-20T04:40:27;3.30;;;1.25;;
55417;SDS011;41287;47.554;7.844;2022-11-20T04:42:52;2.95;;;1.30;;
55417;SDS011;41287;47.554;7.844;2022-11-20T04:45:18;2.75;;;1.20;;
55417;SDS011;41287;47.554;7.844;2022-11-20T04:47:44;2.10;;;1.10;;
55417;SDS011;41287;47.554;7.844;2022-11-20T04:50:09;2.35;;;1.30;;
55417;SDS011;41287;47.554;7.844;2022-11-20T04:52:35;3.67;;;1.42;;
55417;SDS011;41287;47.554;7.844;2022-11-20T04:55:00;2.58;;;1.35;;
55417;SDS011;41287;47.554;7.844;2022-11-20T04:57:25;3.72;;;1.50;;
55417;SDS011;41287;47.554;7.844;2022-11-20T04:59:50;2.50;;;1.20;;
55417;SDS011;41287;47.554;7.844;2022-11-20T05:02:16;3.35;;;1.38;;
55417;SDS011;41287;47.554;7.844;2022-11-20T05:04:41;2.92;;;1.20;;
55417;SDS011;41287;47.554;7.844;2022-11-20T05:07:07;3.17;;;1.20;;
55417;SDS011;41287;47.554;7.844;2022-11-20T05:09:32;3.00;;;1.13;;
55417;SDS011;41287;47.554;7.844;2022-11-20T05:11:59;2.65;;;1.20;;
55417;SDS011;41287;47.554;7.844;2022-11-20T05:14:25;2.42;;;1.13;;
55417;SDS011;41287;47.554;7.844;2022-11-20T05:16:50;2.17;;;1.10;;
55417;SDS011;41287;47.554;7.844;2022-11-20T05:19:15;2.70;;;1.30;;
55417;SDS011;41287;47.554;7.844;2022-11-20T05:21:41;3.05;;;1.33;;
55417;SDS011;41287;47.554;7.844;2022-11-20T05:24:06;2.20;;;1.15;;
55417;SDS011;41287;47.554;7.844;2022-11-20T05:26:32;2.88;;;1.25;;
55417;SDS011;41287;47.554;7.844;2022-11-20T05:28:57;3.83;;;1.55;;
55417;SDS011;41287;47.554;7.844;2022-11-20T05:31:23;1.42;;;1.10;;
55417;SDS011;41287;47.554;7.844;2022-11-20T05:33:50;1.73;;;1.00;;
55417;SDS011;41287;47.554;7.844;2022-11-20T05:36:16;2.47;;;1.10;;
55417;SDS011;41287;47.554;7.844;2022-11-20T05:38:42;2.00;;;1.08;;
55417;SDS011;41287;47.554;7.844;2022-11-20T05:41:12;3.15;;;1.45;;
55417;SDS011;41287;47.554;7.844;2022-11-20T05:43:40;2.95;;;1.00;;
55417;SDS011;41287;47.554;7.844;2022-11-20T05:46:08;2.22;;;1.10;;
55417;SDS011;41287;47.554;7.844;2022-11-20T05:48:34;3.15;;;1.65;;
55417;SDS011;41287;47.554;7.844;2022-11-20T05:51:05;2.25;;;1.23;;
55417;SDS011;41287;47.554;7.844;2022-11-20T05:53:32;3.00;;;1.30;;
55417;SDS011;41287;47.554;7.844;2022-11-20T05:56:05;2.15;;;1.25;;
55417;SDS011;41287;47.554;7.844;2022-11-20T05:58:33;2.90;;;1.15;;
55417;SDS011;41287;47.554;7.844;2022-11-20T06:01:06;2.05;;;1.00;;
55417;SDS011;41287;47.554;7.844;2022-11-20T06:03:32;2.92;;;1.15;;
55417;SDS011;41287;47.554;7.844;2022-11-20T06:05:58;1.45;;;0.85;;
55417;SDS011;41287;47.554;7.844;2022-11-20T06:08:25;2.53;;;1.17;;
55417;SDS011;41287;47.554;7.844;2022-11-20T06:10:51;2.28;;;0.98;;
55417;SDS011;41287;47.554;7.844;2022-11-20T06:13:16;2.30;;;1.00;;
55417;SDS011;41287;47.554;7.844;2022-11-20T06:15:42;2.15;;;0.98;;
55417;SDS011;41287;47.554;7.844;2022-11-20T06:18:12;2.38;;;1.25;;
55417;SDS011;41287;47.554;7.844;2022-11-20T06:20:37;2.42;;;1.20;;
55417;SDS011;41287;47.554;7.844;2022-11-20T06:23:03;2.53;;;1.40;;
55417;SDS011;41287;47.554;7.844;2022-11-20T06:25:28;3.50;;;1.08;;
55417;SDS011;41287;47.554;7.844;2022-11-20T06:27:53;2.03;;;1.08;;
55417;SDS011;41287;47.554;7.844;2022-11-20T06:30:19;2.70;;;1.23;;
55417;SDS011;41287;47.554;7.844;2022-11-20T06:32:44;2.08;;;0.95;;
55417;SDS011;41287;47.554;7.844;2022-11-20T06:35:09;3.50;;;1.27;;
55417;SDS011;41287;47.554;7.844;2022-11-20T06:37:38;3.35;;;1.42;;
55417;SDS011;41287;47.554;7.844;2022-11-20T06:40:04;1.27;;;1.00;;
55417;SDS011;41287;47.554;7.844;2022-11-20T06:42:30;4.35;;;1.00;;
55417;SDS011;41287;47.554;7.844;2022-11-20T06:44:55;2.83;;;0.93;;
55417;SDS011;41287;47.554;7.844;2022-11-20T06:47:21;2.38;;;1.00;;
55417;SDS011;41287;47.554;7.844;2022-11-20T06:49:46;2.53;;;1.23;;
55417;SDS011;41287;47.554;7.844;2022-11-20T06:52:11;1.83;;;0.90;;
55417;SDS011;41287;47.554;7.844;2022-11-20T06:54:36;3.42;;;1.17;;
55417;SDS011;41287;47.554;7.844;2022-11-20T06:57:02;2.33;;;1.05;;
55417;SDS011;41287;47.554;7.844;2022-11-20T06:59:27;1.50;;;1.00;;
55417;SDS011;41287;47.554;7.844;2022-11-20T07:01:53;2.45;;;1.00;;
55417;SDS011;41287;47.554;7.844;2022-11-20T07:04:18;4.25;;;1.35;;
55417;SDS011;41287;47.554;7.844;2022-11-20T07:06:43;1.73;;;0.98;;
55417;SDS011;41287;47.554;7.844;2022-11-20T07:09:09;4.47;;;1.02;;
55417;SDS011;41287;47.554;7.844;2022-11-20T07:11:34;6.65;;;1.02;;
55417;SDS011;41287;47.554;7.844;2022-11-20T07:13:59;6.22;;;1.05;;
55417;SDS011;41287;47.554;7.844;2022-11-20T07:16:25;6.40;;;1.10;;
55417;SDS011;41287;47.554;7.844;2022-11-20T07:18:56;1.10;;;0.70;;
55417;SDS011;41287;47.554;7.844;2022-11-20T07:21:24;4.78;;;1.15;;
55417;SDS011;41287;47.554;7.844;2022-11-20T07:23:49;1.98;;;0.82;;
55417;SDS011;41287;47.554;7.844;2022-11-20T07:26:14;3.08;;;1.00;;
55417;SDS011;41287;47.554;7.844;2022-11-20T07:28:39;5.10;;;0.80;;
55417;SDS011;41287;47.554;7.844;2022-11-20T07:31:08;3.35;;;1.05;;
55417;SDS011;41287;47.554;7.844;2022-11-20T07:33:34;5.95;;;1.25;;
55417;SDS011;41287;47.554;7.844;2022-11-20T07:35:59;15.13;;;1.30;;
55417;SDS011;41287;47.554;7.844;2022-11-20T07:38:25;1.63;;;0.60;;
55417;SDS011;41287;47.554;7.844;2022-11-20T07:40:53;2.47;;;1.20;;
55417;SDS011;41287;47.554;7.844;2022-11-20T07:43:19;1.60;;;0.80;;
55417;SDS011;41287;47.554;7.844;2022-11-20T07:45:46;1.73;;;0.90;;
55417;SDS011;41287;47.554;7.844;2022-11-20T07:48:12;2.78;;;1.00;;
55417;SDS011;41287;47.554;7.844;2022-11-20T07:50:37;2.17;;;0.80;;
55417;SDS011;41287;47.554;7.844;2022-11-20T07:53:03;1.35;;;0.80;;
55417;SDS011;41287;47.554;7.844;2022-11-20T07:55:29;2.42;;;0.80;;
55417;SDS011;41287;47.554;7.844;2022-11-20T07:57:55;3.50;;;0.73;;
55417;SDS011;41287;47.554;7.844;2022-11-20T08:00:21;1.98;;;1.00;;
55417;SDS011;41287;47.554;7.844;2022-11-20T08:02:47;2.47;;;0.98;;
55417;SDS011;41287;47.554;7.844;2022-11-20T08:05:12;2.60;;;0.80;;
55417;SDS011;41287;47.554;7.844;2022-11-20T08:07:42;1.88;;;0.93;;
55417;SDS011;41287;47.554;7.844;2022-11-20T08:10:09;1.92;;;0.82;;
55417;SDS011;41287;47.554;7.844;2022-11-20T08:12:36;1.58;;;0.90;;
55417;SDS011;41287;47.554;7.844;2022-11-20T08:15:33;2.53;;;0.90;;
55417;SDS011;41287;47.554;7.844;2022-11-20T08:17:59;1.75;;;0.80;;
55417;SDS011;41287;47.554;7.844;2022-11-20T08:20:27;2.42;;;0.90;;
55417;SDS011;41287;47.554;7.844;2022-11-20T08:22:56;1.70;;;0.88;;
55417;SDS011;41287;47.554;7.844;2022-11-20T08:25:22;1.00;;;0.60;;
55417;SDS011;41287;47.554;7.844;2022-11-20T08:27:48;1.08;;;0.70;;
55417;SDS011;41287;47.554;7.844;2022-11-20T08:30:13;1.50;;;0.80;;
55417;SDS011;41287;47.554;7.844;2022-11-20T08:32:41;2.70;;;0.80;;
55417;SDS011;41287;47.554;7.844;2022-11-20T08:35:06;2.03;;;0.80;;
55417;SDS011;41287;47.554;7.844;2022-11-20T08:37:32;3.13;;;1.13;;
55417;SDS011;41287;47.554;7.844;2022-11-20T08:39:57;1.77;;;0.90;;
55417;SDS011;41287;47.554;7.844;2022-11-20T08:42:22;1.60;;;0.90;;
55417;SDS011;41287;47.554;7.844;2022-11-20T08:44:52;1.67;;;0.70;;
55417;SDS011;41287;47.554;7.844;2022-11-20T08:47:17;3.22;;;0.93;;
55417;SDS011;41287;47.554;7.844;2022-11-20T08:49:43;2.55;;;0.93;;
55417;SDS011;41287;47.554;7.844;2022-11-20T08:52:08;2.28;;;0.80;;
55417;SDS011;41287;47.554;7.844;2022-11-20T08:54:34;2.10;;;0.82;;
55417;SDS011;41287;47.554;7.844;2022-11-20T08:56:59;1.75;;;0.80;;
55417;SDS011;41287;47.554;7.844;2022-11-20T08:59:24;2.08;;;0.77;;
55417;SDS011;41287;47.554;7.844;2022-11-20T09:01:50;3.85;;;0.98;;
55417;SDS011;41287;47.554;7.844;2022-11-20T09:04:15;5.47;;;0.88;;
55417;SDS011;41287;47.554;7.844;2022-11-20T09:06:40;1.45;;;0.77;;
55417;SDS011;41287;47.554;7.844;2022-11-20T09:09:06;3.08;;;1.10;;
55417;SDS011;41287;47.554;7.844;2022-11-20T09:11:31;4.20;;;1.00;;
55417;SDS011;41287;47.554;7.844;2022-11-20T09:13:57;4.35;;;0.95;;
55417;SDS011;41287;47.554;7.844;2022-11-20T09:16:22;2.10;;;0.73;;
55417;SDS011;41287;47.554;7.844;2022-11-20T09:18:49;2.75;;;1.02;;
55417;SDS011;41287;47.554;7.844;2022-11-20T09:21:14;4.35;;;1.15;;
55417;SDS011;41287;47.554;7.844;2022-11-20T09:23:40;2.58;;;0.95;;
55417;SDS011;41287;47.554;7.844;2022-11-20T09:26:06;3.45;;;0.90;;
55417;SDS011;41287;47.554;7.844;2022-11-20T09:28:34;2.95;;;1.00;;
55417;SDS011;41287;47.554;7.844;2022-11-20T09:30:59;3.33;;;0.82;;
55417;SDS011;41287;47.554;7.844;2022-11-20T09:33:25;2.22;;;0.88;;
55417;SDS011;41287;47.554;7.844;2022-11-20T09:35:50;1.48;;;0.80;;
55417;SDS011;41287;47.554;7.844;2022-11-20T09:38:17;3.08;;;0.82;;
55417;SDS011;41287;47.554;7.844;2022-11-20T09:40:51;3.30;;;0.80;;
55417;SDS011;41287;47.554;7.844;2022-11-20T09:43:46;3.00;;;0.98;;
55417;SDS011;41287;47.554;7.844;2022-11-20T09:46:21;2.08;;;0.95;;
55417;SDS011;41287;47.554;7.844;2022-11-20T09:51:36;2.80;;;1.00;;
55417;SDS011;41287;47.554;7.844;2022-11-20T09:54:20;9.10;;;1.13;;
55417;SDS011;41287;47.554;7.844;2022-11-20T09:56:58;2.03;;;0.80;;
55417;SDS011;41287;47.554;7.844;2022-11-20T09:59:29;3.17;;;1.13;;
55417;SDS011;41287;47.554;7.844;2022-11-20T10:02:08;3.47;;;1.02;;
55417;SDS011;41287;47.554;7.844;2022-11-20T10:04:53;2.60;;;1.02;;
55417;SDS011;41287;47.554;7.844;2022-11-20T10:09:53;3.13;;;1.08;;
55417;SDS011;41287;47.554;7.844;2022-11-20T10:15:00;4.10;;;1.10;;
55417;SDS011;41287;47.554;7.844;2022-11-20T10:20:37;11.18;;;1.20;;
55417;SDS011;41287;47.554;7.844;2022-11-20T10:25:39;6.28;;;1.25;;
55417;SDS011;41287;47.554;7.844;2022-11-20T10:30:54;2.30;;;0.85;;
55417;SDS011;41287;47.554;7.844;2022-11-20T10:33:25;2.67;;;1.10;;
55417;SDS011;41287;47.554;7.844;2022-11-20T10:35:53;4.35;;;0.95;;
55417;SDS011;41287;47.554;7.844;2022-11-20T10:38:32;3.75;;;0.80;;
55417;SDS011;41287;47.554;7.844;2022-11-20T10:41:07;3.92;;;0.98;;
55417;SDS011;41287;47.554;7.844;2022-11-20T10:43:53;2.50;;;0.85;;
55417;SDS011;41287;47.554;7.844;2022-11-20T10:46:25;4.97;;;0.93;;
55417;SDS011;41287;47.554;7.844;2022-11-20T10:48:57;3.15;;;0.90;;
55417;SDS011;41287;47.554;7.844;2022-11-20T10:56:56;1.08;;;0.57;;
55417;SDS011;41287;47.554;7.844;2022-11-20T10:59:45;5.15;;;1.17;;
55417;SDS011;41287;47.554;7.844;2022-11-20T11:02:21;2.97;;;1.15;;
55417;SDS011;41287;47.554;7.844;2022-11-20T11:04:50;1.98;;;0.90;;
55417;SDS011;41287;47.554;7.844;2022-11-20T11:07:17;3.15;;;0.77;;
55417;SDS011;41287;47.554;7.844;2022-11-20T11:09:49;4.53;;;1.20;;
55417;SDS011;41287;47.554;7.844;2022-11-20T11:12:18;2.58;;;0.70;;
55417;SDS011;41287;47.554;7.844;2022-11-20T11:22:42;8.85;;;1.00;;
55417;SDS011;41287;47.554;7.844;2022-11-20T11:25:17;2.83;;;0.95;;
55417;SDS011;41287;47.554;7.844;2022-11-20T11:27:52;4.72;;;1.30;;
55417;SDS011;41287;47.554;7.844;2022-11-20T11:30:21;2.15;;;0.82;;
55417;SDS011;41287;47.554;7.844;2022-11-20T11:32:48;2.22;;;0.82;;
55417;SDS011;41287;47.554;7.844;2022-11-20T11:37:52;3.72;;;1.13;;
55417;SDS011;41287;47.554;7.844;2022-11-20T11:40:39;6.03;;;0.90;;
55417;SDS011;41287;47.554;7.844;2022-11-20T11:43:15;5.93;;;1.30;;
55417;SDS011;41287;47.554;7.844;2022-11-20T11:46:30;5.93;;;1.10;;
55417;SDS011;41287;47.554;7.844;2022-11-20T11:51:38;6.20;;;1.00;;
55417;SDS011;41287;47.554;7.844;2022-11-20T11:59:55;4.15;;;1.23;;
55417;SDS011;41287;47.554;7.844;2022-11-20T12:13:58;6.30;;;1.25;;
55417;SDS011;41287;47.554;7.844;2022-11-20T12:16:26;9.35;;;1.60;;
55417;SDS011;41287;47.554;7.844;2022-11-20T12:18:52;6.45;;;1.60;;
55417;SDS011;41287;47.554;7.844;2022-11-20T12:21:19;3.20;;;1.17;;
55417;SDS011;41287;47.554;7.844;2022-11-20T12:26:35;7.75;;;1.23;;
55417;SDS011;41287;47.554;7.844;2022-11-20T12:31:52;4.40;;;1.10;;
55417;SDS011;41287;47.554;7.844;2022-11-20T12:39:49;4.55;;;1.27;;
55417;SDS011;41287;47.554;7.844;2022-11-20T12:45:24;6.05;;;1.42;;
55417;SDS011;41287;47.554;7.844;2022-11-20T12:48:05;5.95;;;1.20;;
55417;SDS011;41287;47.554;7.844;2022-11-20T12:50:40;6.03;;;1.25;;
55417;SDS011;41287;47.554;7.844;2022-11-20T12:53:49;5.40;;;1.13;;
55417;SDS011;41287;47.554;7.844;2022-11-20T12:56:33;8.32;;;1.27;;
55417;SDS011;41287;47.554;7.844;2022-11-20T13:04:42;4.60;;;1.42;;
55417;SDS011;41287;47.554;7.844;2022-11-20T13:07:20;3.30;;;1.23;;
55417;SDS011;41287;47.554;7.844;2022-11-20T13:09:49;2.55;;;1.25;;
55417;SDS011;41287;47.554;7.844;2022-11-20T13:17:30;3.92;;;1.15;;
55417;SDS011;41287;47.554;7.844;2022-11-20T13:20:02;3.28;;;1.13;;
55417;SDS011;41287;47.554;7.844;2022-11-20T13:22:48;4.72;;;1.42;;
55417;SDS011;41287;47.554;7.844;2022-11-20T13:25:26;2.97;;;1.00;;
55417;SDS011;41287;47.554;7.844;2022-11-20T13:27:52;7.72;;;1.50;;
55417;SDS011;41287;47.554;7.844;2022-11-20T13:30:22;4.05;;;1.70;;
55417;SDS011;41287;47.554;7.844;2022-11-20T13:32:50;4.32;;;1.30;;
55417;SDS011;41287;47.554;7.844;2022-11-20T13:40:52;5.18;;;1.20;;
55417;SDS011;41287;47.554;7.844;2022-11-20T13:43:38;3.47;;;1.00;;
55417;SDS011;41287;47.554;7.844;2022-11-20T13:46:07;4.35;;;1.30;;
55417;SDS011;41287;47.554;7.844;2022-11-20T13:48:34;8.95;;;1.23;;
55417;SDS011;41287;47.554;7.844;2022-11-20T14:02:20;2.70;;;1.17;;
55417;SDS011;41287;47.554;7.844;2022-11-20T14:04:48;5.82;;;1.35;;
55417;SDS011;41287;47.554;7.844;2022-11-20T14:07:16;5.85;;;1.10;;
55417;SDS011;41287;47.554;7.844;2022-11-20T14:09:51;5.80;;;1.17;;
55417;SDS011;41287;47.554;7.844;2022-11-20T14:12:22;6.72;;;1.00;;
55417;SDS011;41287;47.554;7.844;2022-11-20T14:14:56;3.70;;;1.33;;
55417;SDS011;41287;47.554;7.844;2022-11-20T14:19:53;2.78;;;1.20;;
55417;SDS011;41287;47.554;7.844;2022-11-20T14:22:24;3.45;;;1.05;;
55417;SDS011;41287;47.554;7.844;2022-11-20T14:27:41;4.53;;;1.20;;
55417;SDS011;41287;47.554;7.844;2022-11-20T14:30:14;3.92;;;1.25;;
55417;SDS011;41287;47.554;7.844;2022-11-20T14:32:50;3.55;;;0.98;;
55417;SDS011;41287;47.554;7.844;2022-11-20T14:35:25;2.72;;;1.25;;
55417;SDS011;41287;47.554;7.844;2022-11-20T14:37:52;3.53;;;1.20;;
55417;SDS011;41287;47.554;7.844;2022-11-20T14:42:53;3.78;;;1.05;;
55417;SDS011;41287;47.554;7.844;2022-11-20T14:45:20;4.53;;;1.13;;
55417;SDS011;41287;47.554;7.844;2022-11-20T14:47:46;3.28;;;0.80;;
55417;SDS011;41287;47.554;7.844;2022-11-20T14:50:22;7.03;;;1.42;;
55417;SDS011;41287;47.554;7.844;2022-11-20T14:52:50;3.78;;;1.50;;
55417;SDS011;41287;47.554;7.844;2022-11-20T14:55:26;5.75;;;1.15;;
55417;SDS011;41287;47.554;7.844;2022-11-20T14:57:57;2.78;;;1.10;;
55417;SDS011;41287;47.554;7.844;2022-11-20T15:00:27;3.85;;;1.00;;
55417;SDS011;41287;47.554;7.844;2022-11-20T15:02:53;6.90;;;1.23;;
55417;SDS011;41287;47.554;7.844;2022-11-20T15:05:20;4.78;;;0.90;;
55417;SDS011;41287;47.554;7.844;2022-11-20T15:07:50;3.38;;;1.00;;
55417;SDS011;41287;47.554;7.844;2022-11-20T15:10:28;6.53;;;1.15;;
55417;SDS011;41287;47.554;7.844;2022-11-20T15:12:54;6.22;;;1.25;;
55417;SDS011;41287;47.554;7.844;2022-11-20T15:15:27;3.28;;;1.15;;
55417;SDS011;41287;47.554;7.844;2022-11-20T15:17:56;6.03;;;1.10;;
55417;SDS011;41287;47.554;7.844;2022-11-20T15:20:23;2.45;;;0.90;;
55417;SDS011;41287;47.554;7.844;2022-11-20T15:22:51;8.10;;;1.20;;
55417;SDS011;41287;47.554;7.844;2022-11-20T15:25:17;4.90;;;0.90;;
55417;SDS011;41287;47.554;7.844;2022-11-20T15:27:43;2.67;;;0.82;;
55417;SDS011;41287;47.554;7.844;2022-11-20T15:30:20;2.85;;;1.08;;
55417;SDS011;41287;47.554;7.844;2022-11-20T15:32:47;5.75;;;1.27;;
55417;SDS011;41287;47.554;7.844;2022-11-20T15:35:14;2.47;;;0.95;;
55417;SDS011;41287;47.554;7.844;2022-11-20T15:37:40;5.40;;;1.00;;
55417;SDS011;41287;47.554;7.844;2022-11-20T15:40:07;1.90;;;1.08;;
55417;SDS011;41287;47.554;7.844;2022-11-20T15:42:33;5.35;;;1.35;;
55417;SDS011;41287;47.554;7.844;2022-11-20T15:44:59;2.55;;;1.05;;
55417;SDS011;41287;47.554;7.844;2022-11-20T15:47:26;4.72;;;1.20;;
55417;SDS011;41287;47.554;7.844;2022-11-20T15:49:57;3.28;;;1.08;;
55417;SDS011;41287;47.554;7.844;2022-11-20T15:52:22;3.17;;;1.10;;
55417;SDS011;41287;47.554;7.844;2022-11-20T15:54:48;3.53;;;1.35;;
55417;SDS011;41287;47.554;7.844;2022-11-20T15:57:13;3.90;;;1.17;;
55417;SDS011;41287;47.554;7.844;2022-11-20T15:59:39;5.18;;;1.27;;
55417;SDS011;41287;47.554;7.844;2022-11-20T16:02:10;4.32;;;1.08;;
55417;SDS011;41287;47.554;7.844;2022-11-20T16:04:36;5.00;;;1.25;;
55417;SDS011;41287;47.554;7.844;2022-11-20T16:07:02;4.00;;;1.15;;
55417;SDS011;41287;47.554;7.844;2022-11-20T16:09:27;2.65;;;1.02;;
55417;SDS011;41287;47.554;7.844;2022-11-20T16:11:55;3.50;;;1.02;;
55417;SDS011;41287;47.554;7.844;2022-11-20T16:14:23;3.22;;;1.33;;
55417;SDS011;41287;47.554;7.844;2022-11-20T16:17:06;5.63;;;1.70;;
55417;SDS011;41287;47.554;7.844;2022-11-20T16:19:32;2.60;;;0.98;;
55417;SDS011;41287;47.554;7.844;2022-11-20T16:21:57;2.25;;;0.90;;
55417;SDS011;41287;47.554;7.844;2022-11-20T16:24:25;5.38;;;1.20;;
55417;SDS011;41287;47.554;7.844;2022-11-20T16:26:50;4.13;;;1.38;;
55417;SDS011;41287;47.554;7.844;2022-11-20T16:29:15;2.85;;;1.10;;
55417;SDS011;41287;47.554;7.844;2022-11-20T16:31:41;5.53;;;1.55;;
55417;SDS011;41287;47.554;7.844;2022-11-20T16:34:11;5.75;;;1.15;;
55417;SDS011;41287;47.554;7.844;2022-11-20T16:36:44;2.45;;;1.05;;
55417;SDS011;41287;47.554;7.844;2022-11-20T16:39:10;2.97;;;1.10;;
55417;SDS011;41287;47.554;7.844;2022-11-20T16:41:36;3.40;;;1.15;;
55417;SDS011;41287;47.554;7.844;2022-11-20T16:44:05;6.45;;;1.27;;